Time;durP1;ratioP1;P1;durP2;ratioP2;P2;SDS_P1;SDS_P2;PMS_P1;PMS_P2;Temp;Humidity;BMP_temperature;BMP_pressure;BME280_temperature;BME280_humidity;BME280_pressure;Samples;Min_cycle;Max_cycle;Signal;HPM_P1;HPM_P2
2022/10/14 00:00:16;;;;;;;20.63;18.55;;;;;;;12.69;100.00;98741.47;4108824;28;20207;-57
2022/10/14 00:02:18;;;;;;;17.92;16.45;;;;;;;12.62;100.00;98731.78;4122923;28;20676;-57
2022/10/14 00:04:20;;;;;;;18.65;17.25;;;;;;;12.80;100.00;98729.53;4122968;28;20226;-56
2022/10/14 00:06:31;;;;;;;19.45;17.88;;;;;;;12.71;100.00;98736.56;4123498;28;20244;-57
2022/10/14 00:08:33;;;;;;;25.75;19.45;;;;;;;12.73;100.00;98734.41;4109454;28;20628;-57
2022/10/14 00:10:39;;;;;;;20.90;16.67;;;;;;;12.69;100.00;98733.25;4106697;28;20247;-57
2022/10/14 00:12:40;;;;;;;19.05;17.58;;;;;;;12.74;100.00;98727.81;4125716;28;20674;-57
2022/10/14 00:14:42;;;;;;;18.80;17.20;;;;;;;12.77;100.00;98735.53;4122679;28;20229;-57
2022/10/14 00:16:45;;;;;;;20.27;17.00;;;;;;;12.79;100.00;98733.38;4108988;28;20287;-57
2022/10/14 00:18:47;;;;;;;21.35;18.45;;;;;;;12.76;100.00;98739.34;4122401;28;20210;-57
2022/10/14 00:20:59;;;;;;;19.20;17.38;;;;;;;12.78;100.00;98742.66;4123018;28;20684;-57
2022/10/14 00:23:01;;;;;;;19.83;18.23;;;;;;;12.74;100.00;98741.53;4124293;28;20202;-57
2022/10/14 00:25:03;;;;;;;17.33;15.60;;;;;;;12.71;100.00;98742.03;4107643;28;20344;-58
2022/10/14 00:27:05;;;;;;;18.15;16.75;;;;;;;12.79;100.00;98744.34;4123521;28;20215;-57
2022/10/14 00:29:11;;;;;;;19.00;17.50;;;;;;;12.79;100.00;98744.34;4121634;28;20210;-57
2022/10/14 00:31:14;;;;;;;26.17;17.80;;;;;;;12.78;100.00;98748.16;4107911;28;20635;-56
2022/10/14 00:33:15;;;;;;;18.95;17.08;;;;;;;12.75;100.00;98748.69;4123456;28;20202;-57
2022/10/14 00:35:17;;;;;;;19.55;18.10;;;;;;;12.68;100.00;98750.81;4104954;28;20318;-57
2022/10/14 00:37:19;;;;;;;19.50;17.60;;;;;;;12.67;100.00;98740.06;4104824;28;20211;-57
2022/10/14 00:39:21;;;;;;;19.52;17.90;;;;;;;12.70;100.00;98745.88;4105324;28;20207;-57
2022/10/14 00:41:33;;;;;;;19.73;18.25;;;;;;;12.66;100.00;98739.25;4119970;28;20347;-57
2022/10/14 00:43:58;;;;;;;18.67;17.08;;;;;;;12.64;100.00;98741.41;4108507;28;20287;-57
2022/10/14 00:45:59;;;;;;;28.02;20.15;;;;;;;12.64;100.00;98735.94;4120110;28;20584;-57
2022/10/14 00:48:01;;;;;;;19.77;17.88;;;;;;;12.62;100.00;98729.03;4122451;28;20199;-57
2022/10/14 00:50:03;;;;;;;20.08;18.48;;;;;;;12.73;100.00;98737.16;4107150;28;20220;-57
2022/10/14 00:52:13;;;;;;;19.73;18.27;;;;;;;12.70;100.00;98743.13;4107693;28;20203;-57
2022/10/14 00:54:17;;;;;;;23.83;18.17;;;;;;;12.72;100.00;98742.88;4122070;28;20236;-57
2022/10/14 00:56:23;;;;;;;19.35;17.60;;;;;;;12.73;100.00;98739.88;4122850;28;20330;-57
2022/10/14 00:58:25;;;;;;;18.70;17.17;;;;;;;12.72;100.00;98735.50;4121672;28;20202;-57
2022/10/14 01:00:26;;;;;;;19.30;17.25;;;;;;;12.71;100.00;98736.56;4104392;28;20290;-57
2022/10/14 01:02:28;;;;;;;18.45;17.02;;;;;;;12.79;100.00;98738.84;4118259;28;21522;-57
2022/10/14 01:04:30;;;;;;;18.80;17.42;;;;;;;12.71;100.00;98736.56;4120714;28;20229;-57
2022/10/14 01:06:50;;;;;;;17.73;16.13;;;;;;;12.72;100.00;98738.25;4109346;28;20333;-57
2022/10/14 01:09:08;;;;;;;17.65;16.00;;;;;;;12.76;100.00;98736.63;4120159;28;20224;-57
2022/10/14 01:11:26;;;;;;;18.17;16.58;;;;;;;12.72;100.00;98738.25;4107993;28;20281;-57
2022/10/14 01:14:09;;;;;;;20.15;18.17;;;;;;;12.76;100.00;98733.88;4105490;28;20214;-56
2022/10/14 01:16:34;;;;;;;17.88;16.58;;;;;;;12.80;100.00;98729.53;4121364;28;20202;-56
2022/10/14 01:19:04;;;;;;;20.92;18.58;;;;;;;12.68;100.00;98737.09;4121044;28;20245;-56
2022/10/14 01:21:09;;;;;;;19.88;18.13;;;;;;;12.72;100.00;98727.25;4106727;28;20249;-57
2022/10/14 01:23:23;;;;;;;21.08;19.38;;;;;;;12.71;100.00;98741.22;4122614;28;20214;-57
2022/10/14 01:25:54;;;;;;;18.23;16.63;;;;;;;12.71;100.00;98739.28;4122082;28;20229;-57
2022/10/14 01:28:13;;;;;;;26.05;16.95;;;;;;;12.78;100.00;98736.38;4079362;28;20215;-57
2022/10/14 01:30:20;;;;;;;19.45;17.65;;;;;;;12.75;100.00;98737.72;4121179;28;20198;-57
2022/10/14 01:32:51;;;;;;;20.02;18.13;;;;;;;12.80;100.00;98731.44;4106610;28;20287;-57
2022/10/14 01:35:00;;;;;;;20.38;18.35;;;;;;;12.71;100.00;98736.56;4103824;28;20263;-57
2022/10/14 01:37:06;;;;;;;19.10;17.63;;;;;;;12.68;100.00;98726.09;4108936;28;21018;-57
2022/10/14 01:39:15;;;;;;;23.60;21.25;;;;;;;12.69;100.00;98727.75;4107830;28;20313;-57
2022/10/14 01:41:22;;;;;;;23.23;21.23;;;;;;;12.67;100.00;98721.69;4121043;28;20303;-59
2022/10/14 01:43:26;;;;;;;19.10;17.63;;;;;;;12.72;100.00;98715.44;4105808;28;20310;-57
2022/10/14 01:45:29;;;;;;;21.75;19.77;;;;;;;12.72;100.00;98716.28;4090524;28;21395;-57
2022/10/14 01:47:32;;;;;;;21.70;19.60;;;;;;;12.73;100.00;98706.94;4103348;28;20306;-57
2022/10/14 01:49:36;;;;;;;20.30;18.35;;;;;;;12.69;100.00;98703.03;4107164;28;20210;-57
2022/10/14 01:51:41;;;;;;;20.80;19.20;;;;;;;12.69;100.00;98700.28;4103737;28;20238;-57
2022/10/14 01:53:55;;;;;;;24.40;20.23;;;;;;;12.69;100.00;98694.81;4119609;28;20549;-57
2022/10/14 01:55:57;;;;;;;21.23;19.45;;;;;;;12.69;100.00;98688.47;4122555;28;20713;-57
2022/10/14 01:58:00;;;;;;;23.52;20.92;;;;;;;12.72;100.00;98698.94;4122574;28;20214;-57
2022/10/14 02:00:03;;;;;;;28.23;21.02;;;;;;;12.78;100.00;98698.72;4123828;28;20212;-57
2022/10/14 02:02:05;;;;;;;26.35;20.25;;;;;;;12.79;100.00;98689.44;4120311;28;20290;-57
2022/10/14 02:04:18;;;;;;;22.00;19.70;;;;;;;12.72;100.00;98687.97;4121477;28;20808;-56
2022/10/14 02:06:29;;;;;;;23.10;20.95;;;;;;;12.82;100.00;98693.53;4102716;28;20219;-55
2022/10/14 02:08:56;;;;;;;22.92;20.58;;;;;;;12.78;100.00;98685.00;4121959;28;20704;-56
2022/10/14 02:11:14;;;;;;;25.15;20.80;;;;;;;12.78;100.00;98681.44;4107543;28;20297;-57
2022/10/14 02:13:28;;;;;;;21.58;19.58;;;;;;;12.75;100.00;98682.78;4123337;28;20606;-57
2022/10/14 02:15:49;;;;;;;22.98;21.13;;;;;;;12.75;100.00;98677.28;4117388;28;20222;-57
2022/10/14 02:18:05;;;;;;;22.33;20.42;;;;;;;12.78;100.00;98676.75;4119823;28;20210;-57
2022/10/14 02:20:28;;;;;;;24.42;22.05;;;;;;;12.81;100.00;98665.28;4104324;28;20210;-57
2022/10/14 02:22:44;;;;;;;24.60;19.98;;;;;;;12.77;100.00;98668.81;4107089;28;20205;-57
2022/10/14 02:24:50;;;;;;;21.92;19.83;;;;;;;12.77;100.00;98657.81;4105356;28;20645;-57
2022/10/14 02:26:54;;;;;;;30.10;21.17;;;;;;;12.81;100.00;98654.28;4120461;28;20224;-57
2022/10/14 02:28:56;;;;;;;21.33;19.08;;;;;;;12.83;100.00;98646.59;4121568;28;20571;-55
2022/10/14 02:31:03;;;;;;;21.75;19.95;;;;;;;12.80;100.00;98635.31;4105040;28;20207;-57
2022/10/14 02:33:05;;;;;;;22.73;19.95;;;;;;;12.85;100.00;98638.91;4105206;28;20283;-56
2022/10/14 02:35:09;;;;;;;21.90;20.10;;;;;;;12.82;100.00;98644.94;4092020;28;20234;-56
2022/10/14 02:37:11;;;;;;;27.85;21.00;;;;;;;12.78;100.00;98638.31;4122074;28;20209;-56
2022/10/14 02:39:30;;;;;;;27.23;20.98;;;;;;;12.78;100.00;98641.06;4121929;28;20879;-56
2022/10/14 02:41:34;;;;;;;22.33;20.42;;;;;;;12.73;100.00;98626.47;4105630;28;20202;-56
2022/10/14 02:43:36;;;;;;;25.80;20.70;;;;;;;12.75;100.00;98625.13;4123598;28;20264;-56
2022/10/14 02:45:40;;;;;;;27.80;21.08;;;;;;;12.72;100.00;98622.91;4121398;28;20220;-56
2022/10/14 02:47:41;;;;;;;22.52;20.48;;;;;;;12.76;100.00;98624.03;4119133;28;20297;-56
2022/10/14 02:49:43;;;;;;;25.90;21.42;;;;;;;12.82;100.00;98617.50;4121533;28;20202;-56
2022/10/14 02:51:45;;;;;;;24.92;21.63;;;;;;;12.76;100.00;98613.03;4119175;28;20368;-56
2022/10/14 02:53:47;;;;;;;22.30;20.40;;;;;;;12.75;100.00;98611.38;4106497;28;20342;-56
2022/10/14 02:55:48;;;;;;;26.08;22.85;;;;;;;12.79;100.00;98606.19;4120712;28;20206;-56
2022/10/14 02:57:50;;;;;;;22.25;20.05;;;;;;;12.88;100.00;98599.97;4120027;28;20297;-56
2022/10/14 02:59:52;;;;;;;22.42;20.33;;;;;;;12.80;100.00;98608.69;4120010;28;20224;-56
2022/10/14 03:01:53;;;;;;;23.08;20.55;;;;;;;12.79;100.00;98606.19;4107019;28;20246;-56
2022/10/14 03:03:55;;;;;;;21.58;19.63;;;;;;;12.86;100.00;98613.13;4086161;28;20235;-56
2022/10/14 03:05:57;;;;;;;23.13;20.75;;;;;;;12.79;100.00;98607.03;4120496;28;20281;-56
2022/10/14 03:07:58;;;;;;;23.70;21.33;;;;;;;12.81;100.00;98606.75;4104309;28;20202;-56
2022/10/14 03:10:01;;;;;;;24.38;21.70;;;;;;;12.87;100.00;98614.78;4108042;28;20207;-57
2022/10/14 03:12:03;;;;;;;21.60;19.50;;;;;;;12.84;100.00;98612.56;4105998;28;20215;-56
2022/10/14 03:14:05;;;;;;;24.75;20.20;;;;;;;12.86;100.00;98602.16;4107009;28;20222;-56
2022/10/14 03:16:07;;;;;;;23.02;20.92;;;;;;;12.89;100.00;98595.31;4106705;28;20291;-56
2022/10/14 03:18:09;;;;;;;22.17;19.52;;;;;;;12.91;100.00;98598.63;4104555;28;20660;-56
2022/10/14 03:20:11;;;;;;;22.98;20.83;;;;;;;12.95;100.00;98600.59;4105394;28;20604;-56
2022/10/14 03:22:12;;;;;;;31.70;22.05;;;;;;;12.87;100.00;98595.56;4106187;28;20229;-56
2022/10/14 03:24:14;;;;;;;28.67;21.08;;;;;;;12.88;100.00;98599.97;4118537;28;20305;-56
2022/10/14 03:26:16;;;;;;;30.15;21.67;;;;;;;12.87;100.00;98595.56;4101079;28;20223;-56
2022/10/14 03:28:18;;;;;;;22.85;20.85;;;;;;;12.93;100.00;98590.94;4117283;28;20633;-56
2022/10/14 03:30:20;;;;;;;22.20;19.65;;;;;;;12.92;100.00;98595.63;4116465;28;20254;-56
2022/10/14 03:32:21;;;;;;;22.27;20.00;;;;;;;12.88;100.00;98583.47;4101134;28;20214;-56
2022/10/14 03:34:23;;;;;;;23.42;19.45;;;;;;;12.91;100.00;98588.44;4120547;28;20325;-56
2022/10/14 03:36:25;;;;;;;25.52;21.48;;;;;;;12.92;100.00;98584.63;4103969;28;20702;-56
2022/10/14 03:38:27;;;;;;;22.02;20.02;;;;;;;12.97;100.00;98586.59;4120031;28;20737;-56
2022/10/14 03:40:29;;;;;;;22.10;19.92;;;;;;;13.04;100.00;98588.03;4118516;28;20220;-56
2022/10/14 03:42:31;;;;;;;22.90;19.75;;;;;;;13.01;100.00;98588.56;4124106;28;20206;-56
2022/10/14 03:44:33;;;;;;;20.88;19.05;;;;;;;13.03;100.00;98591.88;4108540;28;20615;-56
2022/10/14 03:46:35;;;;;;;22.50;20.38;;;;;;;13.03;100.00;98589.13;4107165;28;20696;-55
2022/10/14 03:48:36;;;;;;;20.55;18.90;;;;;;;13.06;100.00;98585.84;4104944;28;20729;-56
2022/10/14 03:50:38;;;;;;;22.52;20.42;;;;;;;13.04;100.00;98585.28;4120040;28;20238;-56
2022/10/14 03:52:40;;;;;;;21.27;19.13;;;;;;;13.04;100.00;98582.53;4107954;28;20206;-56
2022/10/14 03:54:47;;;;;;;20.63;18.45;;;;;;;13.02;100.00;98573.72;4121222;28;21080;-55
2022/10/14 03:56:49;;;;;;;20.65;18.90;;;;;;;13.13;100.00;98569.97;4105771;28;21915;-56
2022/10/14 03:58:51;;;;;;;20.73;18.50;;;;;;;13.09;100.00;98577.06;4111495;28;20531;-56
2022/10/14 04:00:55;;;;;;;22.60;20.35;;;;;;;13.06;100.00;98572.13;4105972;28;20210;-55
2022/10/14 04:02:57;;;;;;;21.63;19.48;;;;;;;13.02;100.00;98573.72;4121794;28;20244;-56
2022/10/14 04:04:59;;;;;;;20.60;18.65;;;;;;;13.00;100.00;98575.91;4104708;28;20227;-56
2022/10/14 04:07:01;;;;;;;20.52;18.73;;;;;;;12.99;100.00;98566.03;4123557;28;20552;-56
2022/10/14 04:09:04;;;;;;;21.52;19.25;;;;;;;13.05;100.00;98573.19;4122527;28;20740;-55
2022/10/14 04:11:05;;;;;;;22.10;19.13;;;;;;;13.07;100.00;98576.53;4125131;28;20653;-56
2022/10/14 04:13:07;;;;;;;18.83;17.35;;;;;;;13.10;100.00;98575.97;4106964;28;20203;-55
2022/10/14 04:15:09;;;;;;;21.83;19.77;;;;;;;13.08;100.00;98567.19;4122071;28;20236;-56
2022/10/14 04:17:11;;;;;;;23.38;19.27;;;;;;;13.07;100.00;98571.03;4106918;28;20210;-55
2022/10/14 04:19:13;;;;;;;20.77;18.90;;;;;;;13.01;100.00;98569.34;4122333;28;20211;-56
2022/10/14 04:21:15;;;;;;;21.85;19.23;;;;;;;12.98;100.00;98564.34;4108995;28;20315;-56
2022/10/14 04:23:16;;;;;;;21.02;18.55;;;;;;;13.02;100.00;98560.00;4124474;28;20791;-56
2022/10/14 04:25:18;;;;;;;20.95;18.73;;;;;;;13.05;100.00;98555.91;4122874;28;20761;-56
2022/10/14 04:27:20;;;;;;;18.85;17.05;;;;;;;13.04;100.00;98557.81;4123482;28;20222;-56
2022/10/14 04:29:22;;;;;;;20.13;17.13;;;;;;;13.10;100.00;98554.00;4107022;28;20206;-56
2022/10/14 04:31:23;;;;;;;20.67;18.48;;;;;;;13.00;100.00;98553.09;4122279;28;20631;-56
2022/10/14 04:33:25;;;;;;;21.48;18.45;;;;;;;13.05;100.00;98544.91;4119019;28;20229;-56
2022/10/14 04:35:27;;;;;;;28.70;17.85;;;;;;;13.00;100.00;98542.13;4121503;28;21106;-56
2022/10/14 04:37:29;;;;;;;19.27;17.30;;;;;;;13.05;100.00;98531.97;4108452;28;20206;-56
2022/10/14 04:39:30;;;;;;;20.17;18.17;;;;;;;13.00;100.00;98526.47;4119447;28;20603;-56
2022/10/14 04:41:32;;;;;;;19.02;17.33;;;;;;;13.03;100.00;98534.16;4124122;28;20252;-56
2022/10/14 04:43:34;;;;;;;19.38;16.77;;;;;;;12.99;100.00;98535.81;4106796;28;20210;-56
2022/10/14 04:45:35;;;;;;;18.98;17.45;;;;;;;13.05;100.00;98534.72;4121956;28;20207;-56
2022/10/14 04:47:37;;;;;;;18.50;17.02;;;;;;;12.93;100.00;98536.00;4108068;28;20227;-56
2022/10/14 04:49:39;;;;;;;18.42;16.70;;;;;;;12.93;100.00;98530.50;4090734;28;20218;-56
2022/10/14 04:51:41;;;;;;;18.08;16.38;;;;;;;12.98;100.00;98536.06;4107612;28;20217;-56
2022/10/14 04:53:43;;;;;;;16.35;14.75;;;;;;;12.99;100.00;98538.56;4120001;28;20295;-55
2022/10/14 04:55:48;;;;;;;16.13;14.77;;;;;;;13.00;100.00;98531.97;4119814;28;20673;-55
2022/10/14 04:57:49;;;;;;;15.75;14.43;;;;;;;13.08;100.00;98528.72;4123727;28;20237;-56
2022/10/14 04:59:51;;;;;;;14.25;13.07;;;;;;;13.05;100.00;98512.75;4124612;28;20216;-54
2022/10/14 05:01:53;;;;;;;15.13;13.88;;;;;;;12.99;100.00;98522.06;4108840;28;20305;-55
2022/10/14 05:03:55;;;;;;;14.23;13.05;;;;;;;13.01;100.00;98522.63;4105670;28;20215;-56
2022/10/14 05:05:57;;;;;;;14.80;13.43;;;;;;;12.99;100.00;98521.25;4108732;28;20210;-56
2022/10/14 05:07:58;;;;;;;14.18;12.98;;;;;;;13.03;100.00;98525.13;4122496;28;20236;-56
2022/10/14 05:10:04;;;;;;;14.43;13.18;;;;;;;13.04;100.00;98515.78;4090060;28;20216;-56
2022/10/14 05:12:05;;;;;;;14.02;12.90;;;;;;;13.06;100.00;98508.94;4122859;28;20210;-56
2022/10/14 05:14:07;;;;;;;14.98;13.60;;;;;;;13.02;100.00;98516.03;4103846;28;20262;-56
2022/10/14 05:16:09;;;;;;;11.95;10.95;;;;;;;12.98;100.00;98511.34;4124869;28;20753;-56
2022/10/14 05:18:11;;;;;;;13.70;12.40;;;;;;;13.05;100.00;98500.94;4107889;28;20211;-56
2022/10/14 05:20:13;;;;;;;12.48;11.43;;;;;;;13.00;100.00;98514.66;4106077;28;21484;-56
2022/10/14 05:22:15;;;;;;;13.20;12.00;;;;;;;12.99;100.00;98513.00;4121042;28;20202;-57
2022/10/14 05:24:16;;;;;;;13.20;11.73;;;;;;;12.98;100.00;98512.16;4120523;28;20232;-56
2022/10/14 05:26:18;;;;;;;12.70;11.40;;;;;;;12.98;100.00;98512.16;4122674;28;20684;-56
2022/10/14 05:28:20;;;;;;;12.75;11.75;;;;;;;12.99;100.00;98511.09;4105600;28;20217;-55
2022/10/14 05:30:22;;;;;;;13.55;12.38;;;;;;;12.99;100.00;98516.59;4106420;28;20215;-56
2022/10/14 05:32:24;;;;;;;12.68;11.68;;;;;;;12.97;100.00;98510.50;4105145;28;20547;-56
2022/10/14 05:34:26;;;;;;;12.02;10.88;;;;;;;12.97;100.00;98527.00;4118845;28;20223;-56
2022/10/14 05:36:28;;;;;;;11.70;10.50;;;;;;;13.04;100.00;98526.78;4100312;28;20210;-56
2022/10/14 05:38:33;;;;;;;11.43;10.48;;;;;;;12.98;100.00;98528.63;4103632;28;20237;-56
2022/10/14 05:40:35;;;;;;;11.18;10.23;;;;;;;12.98;100.00;98530.56;4117515;28;20216;-56
2022/10/14 05:42:37;;;;;;;11.57;10.57;;;;;;;13.04;100.00;98522.09;4117472;28;20250;-56
2022/10/14 05:44:38;;;;;;;14.45;13.32;;;;;;;12.99;100.00;98523.97;4102564;28;20704;-56
2022/10/14 05:46:40;;;;;;;12.98;11.68;;;;;;;12.97;100.00;98521.50;4121562;28;20225;-56
2022/10/14 05:48:42;;;;;;;12.77;11.52;;;;;;;12.96;100.00;98519.84;4104465;28;20297;-56
2022/10/14 05:50:44;;;;;;;13.23;12.20;;;;;;;13.03;100.00;98519.63;4103879;28;20297;-56
2022/10/14 05:52:46;;;;;;;14.73;13.52;;;;;;;12.95;100.00;98515.44;4123198;28;20296;-56
2022/10/14 05:54:48;;;;;;;13.98;12.52;;;;;;;12.91;100.00;98511.53;4105710;28;20321;-55
2022/10/14 05:56:50;;;;;;;14.70;13.60;;;;;;;12.91;100.00;98506.03;4107921;28;20700;-50
2022/10/14 05:58:52;;;;;;;15.88;14.18;;;;;;;12.98;100.00;98512.16;4104678;28;20318;-48
2022/10/14 06:00:54;;;;;;;18.33;16.52;;;;;;;12.97;100.00;98505.00;4103598;28;20225;-48
2022/10/14 06:02:57;;;;;;;14.88;13.57;;;;;;;12.90;100.00;98511.81;4107675;28;20597;-49
2022/10/14 06:04:58;;;;;;;15.65;14.18;;;;;;;12.94;100.00;98500.03;4121125;28;20314;-49
2022/10/14 06:07:00;;;;;;;15.55;14.23;;;;;;;12.91;100.00;98506.03;4124630;28;20708;-48
2022/10/14 06:09:02;;;;;;;15.48;13.88;;;;;;;12.91;100.00;98503.28;4121595;28;20210;-48
2022/10/14 06:11:11;;;;;;;13.88;12.73;;;;;;;12.95;100.00;98504.47;4118880;28;20204;-48
2022/10/14 06:13:16;;;;;;;13.82;12.63;;;;;;;12.97;100.00;98494.03;4122830;28;20301;-48
2022/10/14 06:15:18;;;;;;;14.80;13.50;;;;;;;13.00;100.00;98503.66;4121201;28;20647;-49
2022/10/14 06:17:19;;;;;;;13.77;12.38;;;;;;;13.04;100.00;98493.81;4106652;28;20242;-48
2022/10/14 06:19:21;;;;;;;13.93;12.63;;;;;;;13.03;100.00;98487.47;4104793;28;20218;-48
2022/10/14 06:21:23;;;;;;;14.63;13.20;;;;;;;13.03;100.00;98487.47;4106230;28;20203;-48
2022/10/14 06:23:25;;;;;;;14.25;12.20;;;;;;;13.07;100.00;98488.59;4125231;28;20209;-48
2022/10/14 06:25:27;;;;;;;15.48;11.93;;;;;;;13.05;100.00;98492.72;4107903;28;20270;-49
2022/10/14 06:27:29;;;;;;;13.40;12.05;;;;;;;13.04;100.00;98489.13;4123256;28;20264;-47
2022/10/14 06:29:36;;;;;;;12.70;11.60;;;;;;;13.07;100.00;98491.34;4124392;28;20264;-49
2022/10/14 06:31:38;;;;;;;15.30;11.80;;;;;;;13.05;100.00;98478.97;4126098;28;20687;-50
2022/10/14 06:33:42;;;;;;;12.32;11.43;;;;;;;13.07;100.00;98483.09;4125967;28;20226;-48
2022/10/14 06:35:44;;;;;;;11.98;10.85;;;;;;;13.05;100.00;98479.78;4092422;28;20590;-48
2022/10/14 06:37:46;;;;;;;11.57;10.68;;;;;;;13.09;100.00;98486.41;4108798;28;20237;-49
2022/10/14 06:39:48;;;;;;;12.65;11.55;;;;;;;13.10;100.00;98485.31;4125661;28;20640;-48
2022/10/14 06:41:50;;;;;;;13.57;12.32;;;;;;;13.14;100.00;98491.09;4107798;28;20213;-48
2022/10/14 06:43:52;;;;;;;12.82;10.90;;;;;;;13.10;100.00;98488.06;4105900;28;20217;-49
2022/10/14 06:45:55;;;;;;;12.23;11.00;;;;;;;13.06;100.00;98486.13;4119561;28;20285;-49
2022/10/14 06:47:57;;;;;;;11.98;10.98;;;;;;;13.04;100.00;98489.13;4126083;28;20313;-50
2022/10/14 06:49:59;;;;;;;12.52;11.40;;;;;;;13.07;100.00;98482.28;4105801;28;20625;-50
2022/10/14 06:52:01;;;;;;;10.77;9.82;;;;;;;13.03;100.00;98481.97;4125693;28;20304;-52
2022/10/14 06:54:03;;;;;;;11.52;10.25;;;;;;;13.06;100.00;98483.38;4123666;28;20234;-49
2022/10/14 06:56:05;;;;;;;12.15;11.05;;;;;;;13.07;100.00;98488.59;4124939;28;20305;-49
2022/10/14 06:58:07;;;;;;;12.05;10.98;;;;;;;13.07;100.00;98482.28;4108433;28;20234;-49
2022/10/14 07:00:09;;;;;;;11.32;10.25;;;;;;;13.02;100.00;98477.59;4124046;28;20209;-48
2022/10/14 07:02:11;;;;;;;12.60;11.45;;;;;;;13.05;100.00;98477.03;4122489;28;20225;-48
2022/10/14 07:04:13;;;;;;;11.90;10.82;;;;;;;13.07;100.00;98483.09;4107821;28;20230;-49
2022/10/14 07:06:14;;;;;;;15.57;12.15;;;;;;;13.12;100.00;98480.41;4105683;28;20289;-49
2022/10/14 07:08:16;;;;;;;13.00;11.77;;;;;;;13.14;100.00;98483.69;4124100;28;20718;-49
2022/10/14 07:10:18;;;;;;;12.18;11.27;;;;;;;13.10;100.00;98477.06;4121835;28;20205;-48
2022/10/14 07:12:20;;;;;;;11.93;10.93;;;;;;;13.11;100.00;98478.72;4125568;28;20209;-49
2022/10/14 07:14:25;;;;;;;12.85;11.85;;;;;;;13.12;100.00;98469.41;4108320;28;20285;-50
2022/10/14 07:16:27;;;;;;;10.48;9.52;;;;;;;13.14;100.00;98472.69;4126601;28;20244;-50
2022/10/14 07:18:29;;;;;;;11.15;9.82;;;;;;;13.25;100.00;98479.06;4128088;28;20206;-50
2022/10/14 07:20:33;;;;;;;9.57;8.73;;;;;;;13.18;100.00;98479.31;4124247;28;20263;-49
2022/10/14 07:22:35;;;;;;;10.77;9.80;;;;;;;13.20;100.00;98481.78;4128434;28;20203;-49
2022/10/14 07:24:39;;;;;;;10.20;8.90;;;;;;;13.23;100.00;98476.59;4110886;28;20230;-49
2022/10/14 07:26:41;;;;;;;12.75;8.80;;;;;;;13.32;100.00;98479.66;4127509;28;20246;-49
2022/10/14 07:28:43;;;;;;;10.15;9.25;;;;;;;13.29;100.00;98475.50;4120690;28;20233;-49
2022/10/14 07:30:45;;;;;;;8.73;7.90;;;;;;;13.35;100.00;98477.19;4112614;28;20215;-49
2022/10/14 07:32:47;;;;;;;10.20;7.68;;;;;;;13.27;100.00;98479.63;4124944;28;20211;-50
2022/10/14 07:34:50;;;;;;;8.10;7.30;;;;;;;13.38;100.00;98478.59;4110396;28;20234;-49
2022/10/14 07:36:52;;;;;;;8.43;7.68;;;;;;;13.35;100.00;98482.69;4111346;28;20305;-49
2022/10/14 07:38:54;;;;;;;8.05;7.15;;;;;;;13.36;100.00;98492.59;4111011;28;20666;-48
2022/10/14 07:41:01;;;;;;;9.02;6.90;;;;;;;13.43;100.00;98487.66;4125987;28;20202;-49
2022/10/14 07:43:03;;;;;;;7.75;7.18;;;;;;;13.45;100.00;98490.16;4110324;28;20210;-50
2022/10/14 07:45:05;;;;;;;10.48;8.02;;;;;;;13.41;100.00;98492.59;4092967;28;20232;-50
2022/10/14 07:47:07;;;;;;;8.13;7.35;;;;;;;13.40;100.00;98493.72;4110996;28;20221;-50
2022/10/14 07:49:18;;;;;;;9.15;7.75;;;;;;;13.51;100.00;98489.88;4125417;28;20207;-52
2022/10/14 07:51:20;;;;;;;7.60;7.03;;;;;;;13.57;100.00;98488.00;4124538;28;20393;-50
2022/10/14 07:53:23;;;;;;;8.73;6.57;;;;;;;13.55;100.00;98485.50;4109282;28;20242;-50
2022/10/14 07:55:25;;;;;;;7.80;6.97;;;;;;;13.53;100.00;98484.13;4126944;28;20261;-49
2022/10/14 07:57:27;;;;;;;7.57;6.93;;;;;;;13.50;100.00;98488.25;4125488;28;20233;-50
2022/10/14 07:59:29;;;;;;;7.10;6.28;;;;;;;13.52;100.00;98488.81;4127650;28;20216;-50
2022/10/14 08:01:31;;;;;;;7.38;6.68;;;;;;;13.53;100.00;98487.72;4109537;28;20225;-51
2022/10/14 08:03:33;;;;;;;7.55;6.95;;;;;;;13.53;100.00;98489.63;4125542;28;20206;-51
2022/10/14 08:05:35;;;;;;;8.55;7.72;;;;;;;13.64;100.00;98489.38;4112245;28;20615;-50
2022/10/14 08:07:39;;;;;;;7.45;6.93;;;;;;;13.61;100.00;98484.44;4107204;28;20286;-51
2022/10/14 08:09:41;;;;;;;11.23;7.68;;;;;;;13.66;100.00;98486.38;4122217;28;20673;-49
2022/10/14 08:11:42;;;;;;;7.57;7.07;;;;;;;13.67;100.00;98483.34;4118570;28;20206;-50
2022/10/14 08:13:45;;;;;;;7.45;6.63;;;;;;;13.72;100.00;98480.63;4124182;28;20304;-49
2022/10/14 08:15:47;;;;;;;7.07;6.53;;;;;;;13.67;100.00;98472.34;4106213;28;20297;-48
2022/10/14 08:17:49;;;;;;;10.20;7.45;;;;;;;13.74;100.00;98472.09;4105271;28;20231;-48
2022/10/14 08:19:50;;;;;;;7.97;7.18;;;;;;;13.80;100.00;98480.09;4122855;28;20209;-49
2022/10/14 08:21:52;;;;;;;7.65;6.93;;;;;;;13.74;100.00;98483.94;4122690;28;20241;-48
2022/10/14 08:23:54;;;;;;;7.00;6.40;;;;;;;13.86;100.00;98483.66;4091568;28;20215;-48
2022/10/14 08:25:56;;;;;;;7.07;6.38;;;;;;;13.87;100.00;98483.41;4106517;28;20297;-48
2022/10/14 08:27:57;;;;;;;7.63;6.68;;;;;;;13.91;100.00;98479.00;4123965;28;20238;-49
2022/10/14 08:30:00;;;;;;;7.10;6.47;;;;;;;13.96;100.00;98481.75;4123937;28;20583;-49
2022/10/14 08:32:02;;;;;;;6.65;6.15;;;;;;;13.93;100.00;98482.31;4122326;28;20297;-50
2022/10/14 08:34:04;;;;;;;6.75;6.15;;;;;;;14.02;100.00;98475.19;4121961;28;20763;-49
2022/10/14 08:36:06;;;;;;;5.68;5.18;;;;;;;14.13;100.00;98481.50;4108074;28;20215;-49
2022/10/14 08:38:08;;;;;;;6.18;5.57;;;;;;;14.04;100.00;98478.47;4107532;28;20735;-49
2022/10/14 08:40:14;;;;;;;5.20;4.80;;;;;;;13.93;100.00;98471.31;4104866;28;20210;-50
2022/10/14 08:42:29;;;;;;;5.35;4.93;;;;;;;13.99;100.00;98475.75;4123137;28;20222;-49
2022/10/14 08:44:49;;;;;;;6.00;5.47;;;;;;;13.93;100.00;98473.22;4123586;28;20232;-51
2022/10/14 08:47:01;;;;;;;8.43;7.63;;;;;;;13.92;100.00;98468.84;4122998;28;20202;-50
2022/10/14 08:49:14;;;;;;;7.22;6.18;;;;;;;13.87;100.00;98474.31;4106393;28;20226;-49
2022/10/14 08:51:17;;;;;;;7.60;6.88;;;;;;;13.85;100.00;98471.88;4122988;28;20206;-48
2022/10/14 08:53:21;;;;;;;10.00;5.55;;;;;;;13.92;100.00;98468.84;4106508;28;20234;-49
2022/10/14 08:55:36;;;;;;;14.02;7.32;;;;;;;13.85;100.00;98463.63;4106768;28;20301;-49
2022/10/14 08:57:48;;;;;;;6.47;5.97;;;;;;;13.81;100.00;98467.16;4124102;28;20202;-49
2022/10/14 08:59:50;;;;;;;6.65;6.05;;;;;;;13.79;100.00;98464.69;4123404;28;20807;-51
2022/10/14 09:01:57;;;;;;;6.70;6.18;;;;;;;13.86;100.00;98458.91;4119299;28;20218;-51
2022/10/14 09:04:04;;;;;;;6.38;5.75;;;;;;;13.68;100.00;98457.50;4107203;28;20322;-49
2022/10/14 09:06:19;;;;;;;6.13;5.63;;;;;;;13.70;100.00;98455.31;4124403;28;20221;-50
2022/10/14 09:08:29;;;;;;;7.82;4.93;;;;;;;13.75;100.00;98452.56;4087679;28;20694;-53
2022/10/14 09:10:34;;;;;;;6.05;5.55;;;;;;;13.77;100.00;98455.88;4099179;28;20301;-53
2022/10/14 09:12:39;;;;;;;8.38;5.53;;;;;;;13.84;100.00;98448.19;4103288;28;20306;-52
2022/10/14 09:14:47;;;;;;;5.93;5.50;;;;;;;13.77;100.00;98450.38;4117725;28;20226;-52
2022/10/14 09:16:53;;;;;;;6.35;5.55;;;;;;;13.84;100.00;98456.44;4118257;28;20297;-52
2022/10/14 09:19:00;;;;;;;5.80;4.35;;;;;;;13.87;100.00;98446.81;4121654;28;20276;-51
2022/10/14 09:21:16;;;;;;;5.88;5.47;;;;;;;13.92;100.00;98447.66;4117377;28;20210;-52
2022/10/14 09:23:37;;;;;;;7.18;5.32;;;;;;;13.93;100.00;98453.97;4104186;28;20213;-52
2022/10/14 09:25:42;;;;;;;6.13;5.68;;;;;;;13.93;100.00;98442.97;4121917;28;20217;-52
2022/10/14 09:27:44;;;;;;;7.07;5.63;;;;;;;13.96;100.00;98439.69;4123675;28;20321;-51